Terminal Aerodrome Forecast
Issued by NWS

Home | Current Version | Previous Version | Text Only | Print | Product List | Glossary On
Versions: 1 2 3 4 5 6 7 8 9 10 11 12 13 14 15 16 17 18 19 20 21 22 23 24
437
FTUS46 KPDT 241720
TAFYKM
TAF
KYKM 241720Z 2418/2518 VRB04KT P6SM -RA OVC045
      TEMPO 2418/2422 4SM BR BKN030
     FM250100 VRB04KT P6SM SCT030 BKN050
     FM250600 27006KT P6SM SCT015 SCT180
     FM251700 32008KT P6SM VCSH SCT020 BKN070=

USA.gov is the U.S. government's official web portal to all federal, state and local government web resources and services.